createdAt,value
2017-10-10T00:00:22.279Z,994.8
2017-10-10T00:01:22.934Z,994.8
2017-10-10T00:02:23.641Z,994.8
2017-10-10T00:03:24.298Z,994.8
2017-10-10T00:04:24.952Z,994.8
2017-10-10T00:05:25.607Z,994.8
2017-10-10T00:06:26.263Z,994.7
2017-10-10T00:07:26.918Z,994.8
2017-10-10T00:08:27.573Z,994.7
2017-10-10T00:09:28.228Z,994.8
2017-10-10T00:10:28.883Z,994.8
2017-10-10T00:11:29.539Z,994.8
2017-10-10T00:12:30.193Z,994.8
2017-10-10T00:13:30.849Z,994.8
2017-10-10T00:14:31.508Z,994.8
2017-10-10T00:15:32.163Z,994.8
2017-10-10T00:16:32.816Z,994.8
2017-10-10T00:17:33.472Z,994.8
2017-10-10T00:18:34.128Z,994.8
2017-10-10T00:19:34.783Z,994.8
2017-10-10T00:20:35.438Z,994.7
2017-10-10T00:21:36.094Z,994.7
2017-10-10T00:22:36.752Z,994.7
2017-10-10T00:23:37.406Z,994.7
2017-10-10T00:24:38.062Z,994.7
2017-10-10T00:25:38.716Z,994.7
2017-10-10T00:26:39.373Z,994.7
2017-10-10T00:27:40.080Z,994.7
2017-10-10T00:28:40.737Z,994.7
2017-10-10T00:29:41.394Z,994.7
2017-10-10T00:30:42.049Z,994.7
2017-10-10T00:31:42.707Z,994.7
2017-10-10T00:32:43.363Z,994.7
2017-10-10T00:33:44.021Z,994.7
2017-10-10T00:34:44.677Z,994.7
2017-10-10T00:35:45.342Z,994.7
2017-10-10T00:36:45.994Z,994.6
2017-10-10T00:37:46.696Z,994.7
2017-10-10T00:38:47.355Z,994.7
2017-10-10T00:39:48.010Z,994.6
2017-10-10T00:40:48.666Z,994.6
2017-10-10T00:41:49.323Z,994.6
2017-10-10T00:42:50.230Z,994.7
2017-10-10T00:43:50.885Z,994.7
2017-10-10T00:44:51.579Z,994.7
2017-10-10T00:45:52.236Z,994.7
2017-10-10T00:46:52.928Z,994.7
2017-10-10T00:47:53.635Z,994.7
2017-10-10T00:48:54.292Z,994.6
2017-10-10T00:49:54.946Z,994.6
2017-10-10T00:50:55.604Z,994.6
2017-10-10T00:51:56.262Z,994.6
2017-10-10T00:52:56.915Z,994.7
2017-10-10T00:53:57.572Z,994.6
2017-10-10T00:54:58.230Z,994.7
2017-10-10T00:55:58.888Z,994.6
2017-10-10T00:56:59.543Z,994.6
2017-10-10T00:58:00.200Z,994.6
2017-10-10T00:59:00.855Z,994.6
2017-10-10T01:00:01.514Z,994.5
2017-10-10T01:01:02.170Z,994.6
2017-10-10T01:02:02.826Z,994.5
2017-10-10T01:03:03.483Z,994.6
2017-10-10T01:04:04.140Z,994.5
2017-10-10T01:05:04.798Z,994.5
2017-10-10T01:06:05.452Z,994.6
2017-10-10T01:07:06.109Z,994.5
2017-10-10T01:08:06.768Z,994.5
2017-10-10T01:09:07.423Z,994.5
2017-10-10T01:10:08.079Z,994.5
2017-10-10T01:11:08.733Z,994.5
2017-10-10T01:12:09.426Z,994.5
2017-10-10T01:13:10.335Z,994.6
2017-10-10T01:14:11.027Z,994.5
2017-10-10T01:15:11.683Z,994.5
2017-10-10T01:16:12.341Z,994.5
2017-10-10T01:17:12.997Z,994.5
2017-10-10T01:18:13.704Z,994.5
2017-10-10T01:19:14.361Z,994.5
2017-10-10T01:20:15.017Z,994.5
2017-10-10T01:21:15.674Z,994.5
2017-10-10T01:22:16.329Z,994.5
2017-10-10T01:23:16.986Z,994.5
2017-10-10T01:24:17.641Z,994.5
2017-10-10T01:25:18.299Z,994.5
2017-10-10T01:26:18.956Z,994.4
2017-10-10T01:27:19.611Z,994.4
2017-10-10T01:28:20.268Z,994.4
2017-10-10T01:29:20.924Z,994.4
2017-10-10T01:30:21.582Z,994.4
2017-10-10T01:31:22.238Z,994.4
2017-10-10T01:32:22.895Z,994.4
2017-10-10T01:33:23.552Z,994.4
2017-10-10T01:34:24.208Z,994.4
2017-10-10T01:35:24.866Z,994.4
2017-10-10T01:36:25.521Z,994.4
2017-10-10T01:37:26.178Z,994.4
2017-10-10T01:38:26.833Z,994.4
2017-10-10T01:39:27.492Z,994.3
2017-10-10T01:40:28.146Z,994.3
2017-10-10T01:41:28.803Z,994.3
2017-10-10T01:42:29.460Z,994.3
2017-10-10T01:43:30.155Z,994.3
2017-10-10T01:44:30.815Z,994.3
2017-10-10T01:45:31.467Z,994.2
2017-10-10T01:46:32.128Z,994.3
2017-10-10T01:47:32.780Z,994.3
2017-10-10T01:48:33.436Z,994.3
2017-10-10T01:49:34.092Z,994.2
2017-10-10T01:50:34.749Z,994.2
2017-10-10T01:51:35.406Z,994.3
2017-10-10T01:52:36.064Z,994.2
2017-10-10T01:53:36.719Z,994.3
2017-10-10T01:54:37.377Z,994.3
2017-10-10T01:55:38.031Z,994.2
2017-10-10T01:56:38.694Z,994.2
2017-10-10T01:57:39.345Z,994.2
2017-10-10T01:58:40.057Z,994.2
2017-10-10T01:59:40.708Z,994.2
2017-10-10T02:00:41.362Z,994.2
2017-10-10T02:01:42.021Z,994.2
2017-10-10T02:02:42.678Z,994.1
2017-10-10T02:03:43.384Z,994.1
2017-10-10T02:04:44.040Z,994.2
2017-10-10T02:05:44.701Z,994.1
2017-10-10T02:06:45.354Z,994.2
2017-10-10T02:07:46.012Z,994.1
2017-10-10T02:08:46.668Z,994.1
2017-10-10T02:09:47.362Z,994.1
2017-10-10T02:10:48.018Z,994.1
2017-10-10T02:11:48.676Z,994.1
2017-10-10T02:12:49.332Z,994.1
2017-10-10T02:13:49.988Z,994.0
2017-10-10T02:14:50.644Z,994.1
2017-10-10T02:15:51.301Z,994.1
2017-10-10T02:16:51.960Z,994.1
2017-10-10T02:17:52.613Z,994.0
2017-10-10T02:18:53.319Z,994.0
2017-10-10T02:19:53.974Z,994.0
2017-10-10T02:20:54.646Z,994.0
2017-10-10T02:21:55.288Z,994.0
2017-10-10T02:22:55.945Z,994.0
2017-10-10T02:23:56.602Z,994.0
2017-10-10T02:24:57.257Z,994.0
2017-10-10T02:25:57.914Z,994.0
2017-10-10T02:26:58.570Z,994.0
2017-10-10T02:27:59.227Z,993.9
2017-10-10T02:28:59.882Z,994.0
2017-10-10T02:30:00.540Z,994.0
2017-10-10T02:31:01.198Z,993.9
2017-10-10T02:32:01.854Z,993.9
2017-10-10T02:33:02.512Z,993.9
2017-10-10T02:34:03.470Z,993.9
2017-10-10T02:35:04.127Z,993.9
2017-10-10T02:36:04.788Z,994.0
2017-10-10T02:37:05.437Z,993.9
2017-10-10T02:38:06.094Z,994.0
2017-10-10T02:39:06.752Z,994.0
2017-10-10T02:40:07.407Z,994.0
2017-10-10T02:41:08.063Z,994.0
2017-10-10T02:42:08.754Z,994.0
2017-10-10T02:43:09.412Z,994.0
2017-10-10T02:44:10.067Z,994.0
2017-10-10T02:45:10.724Z,994.0
2017-10-10T02:46:11.380Z,994.0
2017-10-10T02:47:12.036Z,994.0
2017-10-10T02:48:12.694Z,993.9
2017-10-10T02:49:13.349Z,993.9
2017-10-10T02:50:14.012Z,993.9
2017-10-10T02:51:14.662Z,993.9
2017-10-10T02:52:15.318Z,993.9
2017-10-10T02:53:15.982Z,994.0
2017-10-10T02:54:16.681Z,993.9
2017-10-10T02:55:17.338Z,993.9
2017-10-10T02:56:17.994Z,993.9
2017-10-10T02:57:18.651Z,993.9
2017-10-10T02:58:19.307Z,993.9
2017-10-10T02:59:19.966Z,993.9
2017-10-10T03:00:20.621Z,993.9
2017-10-10T03:01:21.284Z,993.9
2017-10-10T03:02:21.936Z,993.9
2017-10-10T03:03:22.592Z,993.9
2017-10-10T03:04:23.247Z,993.9
2017-10-10T03:05:23.905Z,993.9
2017-10-10T03:06:24.560Z,993.9
2017-10-10T03:07:25.218Z,993.9
2017-10-10T03:08:25.874Z,993.9
2017-10-10T03:09:26.618Z,993.9
2017-10-10T03:10:27.274Z,993.9
2017-10-10T03:11:27.930Z,994.0
2017-10-10T03:12:28.586Z,993.9
2017-10-10T03:13:29.242Z,993.9
2017-10-10T03:14:29.899Z,993.9
2017-10-10T03:15:30.556Z,993.8
2017-10-10T03:16:31.213Z,993.8
2017-10-10T03:17:31.880Z,993.9
2017-10-10T03:18:32.528Z,993.9
2017-10-10T03:19:33.234Z,993.9
2017-10-10T03:20:33.897Z,993.9
2017-10-10T03:21:34.549Z,993.9
2017-10-10T03:22:35.204Z,993.8
2017-10-10T03:23:35.862Z,993.9
2017-10-10T03:24:36.517Z,993.8
2017-10-10T03:25:37.176Z,993.9
2017-10-10T03:26:37.832Z,993.9
2017-10-10T03:27:38.488Z,993.9
2017-10-10T03:28:39.144Z,993.9
2017-10-10T03:29:39.852Z,993.8
2017-10-10T03:30:40.513Z,993.8
2017-10-10T03:31:41.168Z,993.8
2017-10-10T03:32:41.824Z,993.9
2017-10-10T03:33:42.483Z,993.9
2017-10-10T03:34:43.189Z,993.9
2017-10-10T03:35:43.847Z,993.9
2017-10-10T03:36:44.504Z,993.9
2017-10-10T03:37:45.163Z,993.9
2017-10-10T03:38:45.855Z,993.9
2017-10-10T03:39:46.513Z,993.9
2017-10-10T03:40:47.175Z,993.9
2017-10-10T03:41:47.828Z,993.9
2017-10-10T03:42:48.481Z,993.9
2017-10-10T03:43:49.139Z,993.9
2017-10-10T03:44:49.798Z,993.9
2017-10-10T03:45:50.451Z,993.9
2017-10-10T03:46:51.144Z,993.9
2017-10-10T03:47:51.801Z,993.9
2017-10-10T03:48:52.459Z,993.9
2017-10-10T03:49:53.113Z,993.9
2017-10-10T03:50:53.770Z,993.9
2017-10-10T03:51:54.427Z,993.9
2017-10-10T03:52:55.084Z,993.9
2017-10-10T03:53:55.743Z,993.9
2017-10-10T03:54:56.454Z,993.9
2017-10-10T03:55:57.105Z,993.9
2017-10-10T03:56:57.766Z,993.9
2017-10-10T03:57:58.417Z,993.9
2017-10-10T03:58:59.079Z,993.9
2017-10-10T03:59:59.731Z,993.9
2017-10-10T04:01:00.389Z,993.9
2017-10-10T04:02:01.047Z,993.9
2017-10-10T04:03:01.705Z,993.9
2017-10-10T04:04:02.363Z,994.0
2017-10-10T04:05:03.070Z,993.9
2017-10-10T04:06:03.725Z,993.9
2017-10-10T04:07:04.382Z,993.9
2017-10-10T04:08:05.038Z,993.9
2017-10-10T04:09:05.695Z,993.9
2017-10-10T04:10:06.353Z,993.9
2017-10-10T04:11:07.007Z,993.9
2017-10-10T04:12:07.665Z,993.9
2017-10-10T04:13:08.321Z,993.9
2017-10-10T04:14:08.980Z,993.9
2017-10-10T04:15:09.685Z,993.8
2017-10-10T04:16:10.342Z,993.9
2017-10-10T04:17:10.998Z,993.9
2017-10-10T04:18:11.655Z,993.8
2017-10-10T04:19:12.313Z,993.9
2017-10-10T04:20:12.968Z,993.9
2017-10-10T04:21:13.625Z,993.9
2017-10-10T04:22:14.280Z,993.9
2017-10-10T04:23:14.941Z,993.8
2017-10-10T04:24:15.636Z,993.9
2017-10-10T04:25:16.339Z,993.8
2017-10-10T04:26:16.996Z,993.9
2017-10-10T04:27:17.653Z,993.9
2017-10-10T04:28:18.309Z,993.9
2017-10-10T04:29:18.964Z,993.9
2017-10-10T04:30:19.621Z,993.9
2017-10-10T04:31:20.276Z,993.9
2017-10-10T04:32:20.935Z,993.9
2017-10-10T04:33:21.588Z,993.9
2017-10-10T04:34:22.246Z,993.8
2017-10-10T04:35:22.903Z,993.9
2017-10-10T04:36:23.559Z,993.9
2017-10-10T04:37:24.221Z,993.9
2017-10-10T04:38:24.873Z,993.9
2017-10-10T04:39:25.529Z,993.9
2017-10-10T04:40:26.185Z,993.9
2017-10-10T04:41:26.846Z,993.9
2017-10-10T04:42:27.499Z,993.9
2017-10-10T04:43:28.155Z,993.8
2017-10-10T04:44:28.811Z,993.9
2017-10-10T04:45:29.469Z,993.8
2017-10-10T04:46:30.124Z,993.9
2017-10-10T04:47:30.781Z,993.9
2017-10-10T04:48:31.438Z,993.8
2017-10-10T04:49:32.094Z,993.9
2017-10-10T04:50:32.803Z,993.9
2017-10-10T04:51:33.463Z,993.9
2017-10-10T04:52:34.115Z,993.9
2017-10-10T04:53:34.773Z,993.9
2017-10-10T04:54:35.428Z,993.9
2017-10-10T04:55:36.086Z,993.8
2017-10-10T04:56:36.741Z,993.9
2017-10-10T04:57:37.398Z,993.9
2017-10-10T04:58:38.055Z,993.9
2017-10-10T04:59:38.711Z,993.9
2017-10-10T05:00:39.368Z,993.9
2017-10-10T05:01:40.024Z,993.8
2017-10-10T05:02:40.682Z,993.8
2017-10-10T05:03:41.376Z,993.9
2017-10-10T05:04:42.035Z,993.8
2017-10-10T05:05:42.689Z,993.8
2017-10-10T05:06:43.347Z,993.9
2017-10-10T05:07:44.002Z,993.9
2017-10-10T05:08:44.662Z,993.9
2017-10-10T05:09:45.318Z,993.9
2017-10-10T05:10:45.972Z,993.9
2017-10-10T05:11:46.630Z,993.9
2017-10-10T05:12:47.322Z,993.9
2017-10-10T05:13:47.977Z,993.9
2017-10-10T05:14:48.636Z,993.9
2017-10-10T05:15:49.290Z,993.9
2017-10-10T05:16:49.948Z,993.9
2017-10-10T05:17:50.605Z,993.9
2017-10-10T05:18:51.260Z,993.8
2017-10-10T05:19:51.917Z,993.8
2017-10-10T05:20:52.612Z,993.8
2017-10-10T05:21:53.267Z,993.8
2017-10-10T05:22:53.925Z,993.8
2017-10-10T05:23:54.585Z,993.9
2017-10-10T05:24:55.259Z,993.8
2017-10-10T05:25:55.933Z,993.9
2017-10-10T05:26:56.590Z,993.9
2017-10-10T05:27:57.248Z,993.9
2017-10-10T05:28:57.906Z,993.9
2017-10-10T05:29:58.564Z,993.9
2017-10-10T05:30:59.221Z,993.9
2017-10-10T05:31:59.878Z,994.0
2017-10-10T05:33:00.538Z,994.0
2017-10-10T05:34:01.197Z,994.0
2017-10-10T05:35:01.855Z,993.9
2017-10-10T05:36:02.565Z,994.0
2017-10-10T05:37:03.224Z,994.0
2017-10-10T05:38:03.880Z,994.0
2017-10-10T05:39:04.545Z,994.0
2017-10-10T05:40:05.200Z,993.9
2017-10-10T05:41:05.857Z,994.0
2017-10-10T05:42:06.519Z,993.9
2017-10-10T05:43:07.214Z,994.0
2017-10-10T05:44:07.873Z,994.0
2017-10-10T05:45:08.532Z,994.0
2017-10-10T05:46:09.242Z,994.0
2017-10-10T05:47:09.901Z,994.0
2017-10-10T05:48:10.561Z,993.9
2017-10-10T05:49:11.223Z,993.9
2017-10-10T05:50:11.884Z,994.0
2017-10-10T05:51:12.542Z,994.0
2017-10-10T05:52:13.204Z,993.9
2017-10-10T05:53:13.862Z,993.9
2017-10-10T05:54:14.521Z,994.0
2017-10-10T05:55:15.181Z,993.9
2017-10-10T05:56:15.842Z,993.9
2017-10-10T05:57:16.502Z,993.9
2017-10-10T05:58:17.161Z,993.9
2017-10-10T05:59:17.821Z,993.9
2017-10-10T06:00:18.481Z,993.9
2017-10-10T06:01:19.142Z,994.0
2017-10-10T06:02:19.802Z,993.9
2017-10-10T06:03:20.463Z,993.9
2017-10-10T06:04:21.122Z,994.0
2017-10-10T06:05:21.782Z,994.0
2017-10-10T06:06:22.481Z,994.0
2017-10-10T06:07:23.157Z,994.0
2017-10-10T06:08:23.799Z,994.0
2017-10-10T06:09:24.466Z,994.0
2017-10-10T06:10:25.161Z,994.0
2017-10-10T06:11:25.854Z,994.0
2017-10-10T06:12:26.515Z,994.0
2017-10-10T06:13:27.175Z,994.0
2017-10-10T06:14:27.837Z,994.0
2017-10-10T06:15:28.498Z,994.0
2017-10-10T06:16:29.206Z,994.0
2017-10-10T06:17:29.865Z,994.0
2017-10-10T06:18:30.526Z,994.1
2017-10-10T06:19:31.186Z,994.1
2017-10-10T06:20:31.845Z,994.0
2017-10-10T06:21:32.756Z,994.0
2017-10-10T06:22:33.414Z,994.0
2017-10-10T06:23:34.073Z,994.0
2017-10-10T06:24:34.731Z,994.0
2017-10-10T06:25:35.390Z,994.0
2017-10-10T06:26:36.051Z,994.1
2017-10-10T06:27:36.714Z,994.0
2017-10-10T06:28:37.372Z,994.0
2017-10-10T06:29:38.069Z,994.0
2017-10-10T06:30:38.728Z,994.0
2017-10-10T06:31:39.387Z,994.0
2017-10-10T06:32:40.048Z,994.0
2017-10-10T06:33:40.709Z,994.0
2017-10-10T06:34:41.367Z,994.0
2017-10-10T06:35:42.026Z,994.0
2017-10-10T06:36:42.685Z,994.0
2017-10-10T06:37:43.343Z,994.0
2017-10-10T06:38:44.004Z,994.0
2017-10-10T06:39:44.664Z,994.0
2017-10-10T06:40:45.323Z,994.0
2017-10-10T06:41:46.233Z,994.1
2017-10-10T06:42:46.891Z,994.0
2017-10-10T06:43:47.553Z,994.0
2017-10-10T06:44:48.213Z,994.0
2017-10-10T06:45:48.871Z,994.0
2017-10-10T06:46:49.531Z,994.0
2017-10-10T06:47:50.189Z,994.1
2017-10-10T06:48:50.848Z,994.0
2017-10-10T06:49:51.508Z,994.0
2017-10-10T06:50:52.172Z,994.0
2017-10-10T06:51:52.826Z,994.0
2017-10-10T06:52:53.485Z,994.0
2017-10-10T06:53:54.145Z,994.0
2017-10-10T06:54:54.802Z,994.0
2017-10-10T06:55:55.464Z,994.0
2017-10-10T06:56:56.124Z,994.0
2017-10-10T06:57:56.783Z,994.0
2017-10-10T06:58:57.445Z,994.1
2017-10-10T06:59:58.103Z,994.1
2017-10-10T07:00:58.762Z,994.1
2017-10-10T07:01:59.424Z,994.1
2017-10-10T07:03:00.085Z,994.1
2017-10-10T07:04:00.746Z,994.1
2017-10-10T07:05:01.409Z,994.0
2017-10-10T07:06:02.066Z,994.0
2017-10-10T07:07:02.778Z,994.1
2017-10-10T07:08:03.439Z,994.0
2017-10-10T07:09:04.099Z,994.0
2017-10-10T07:10:04.759Z,994.0
2017-10-10T07:11:05.423Z,993.9
2017-10-10T07:12:06.083Z,994.0
2017-10-10T07:13:06.743Z,994.0
2017-10-10T07:14:07.403Z,994.0
2017-10-10T07:15:08.063Z,994.1
2017-10-10T07:16:08.724Z,994.1
2017-10-10T07:17:09.387Z,994.1
2017-10-10T07:18:10.045Z,994.1
2017-10-10T07:19:10.707Z,994.1
2017-10-10T07:20:11.366Z,994.1
2017-10-10T07:21:12.026Z,994.1
2017-10-10T07:22:12.737Z,994.1
2017-10-10T07:23:13.396Z,994.1
2017-10-10T07:24:14.055Z,994.1
2017-10-10T07:25:14.718Z,994.1
2017-10-10T07:26:15.380Z,994.1
2017-10-10T07:27:16.091Z,994.1
2017-10-10T07:28:16.754Z,994.1
2017-10-10T07:29:17.415Z,994.1
2017-10-10T07:30:18.075Z,994.1
2017-10-10T07:31:18.736Z,994.1
2017-10-10T07:32:19.396Z,994.2
2017-10-10T07:33:20.056Z,994.1
2017-10-10T07:34:20.716Z,994.1
2017-10-10T07:35:21.379Z,994.2
2017-10-10T07:36:22.044Z,994.1
2017-10-10T07:37:22.699Z,994.1
2017-10-10T07:38:23.362Z,994.1
2017-10-10T07:39:24.022Z,994.1
2017-10-10T07:40:24.682Z,994.1
2017-10-10T07:41:25.344Z,994.2
2017-10-10T07:42:26.058Z,994.2
2017-10-10T07:43:26.720Z,994.2
2017-10-10T07:44:27.383Z,994.2
2017-10-10T07:45:28.047Z,994.2
2017-10-10T07:46:28.707Z,994.2
2017-10-10T07:47:29.368Z,994.2
2017-10-10T07:48:30.030Z,994.2
2017-10-10T07:49:30.693Z,994.3
2017-10-10T07:50:31.354Z,994.3
2017-10-10T07:51:32.016Z,994.3
2017-10-10T07:52:32.680Z,994.3
2017-10-10T07:53:33.342Z,994.3
2017-10-10T07:54:34.004Z,994.3
2017-10-10T07:55:34.665Z,994.2
2017-10-10T07:56:35.326Z,994.2
2017-10-10T07:57:36.039Z,994.2
2017-10-10T07:58:36.706Z,994.2
2017-10-10T07:59:37.364Z,994.2
2017-10-10T08:00:38.027Z,994.2
2017-10-10T08:01:38.689Z,994.2
2017-10-10T08:02:39.354Z,994.2
2017-10-10T08:03:40.018Z,994.2
2017-10-10T08:04:40.699Z,994.2
2017-10-10T08:05:41.342Z,994.2
2017-10-10T08:06:42.007Z,994.3
2017-10-10T08:07:42.720Z,994.3
2017-10-10T08:08:43.383Z,994.3
2017-10-10T08:09:44.044Z,994.4
2017-10-10T08:10:44.707Z,994.4
2017-10-10T08:11:45.371Z,994.5
2017-10-10T08:12:46.035Z,994.5
2017-10-10T08:13:46.699Z,994.5
2017-10-10T08:14:47.364Z,994.5
2017-10-10T08:15:48.026Z,994.5
2017-10-10T08:16:48.688Z,994.5
2017-10-10T08:17:49.352Z,994.5
2017-10-10T08:18:50.015Z,994.6
2017-10-10T08:19:50.676Z,994.5
2017-10-10T08:20:51.339Z,994.5
2017-10-10T08:21:52.005Z,994.4
2017-10-10T08:22:52.669Z,994.4
2017-10-10T08:23:53.331Z,994.6
2017-10-10T08:24:53.994Z,994.5
2017-10-10T08:25:54.660Z,994.4
2017-10-10T08:26:55.362Z,994.4
2017-10-10T08:27:56.072Z,994.5
2017-10-10T08:28:56.735Z,994.4
2017-10-10T08:29:57.400Z,994.4
2017-10-10T08:30:58.064Z,994.4
2017-10-10T08:31:58.730Z,994.5
2017-10-10T08:32:59.435Z,994.5
2017-10-10T08:34:00.092Z,994.4
2017-10-10T08:35:00.755Z,994.5
2017-10-10T08:36:01.419Z,994.5
2017-10-10T08:37:02.083Z,994.5
2017-10-10T08:38:02.746Z,994.5
2017-10-10T08:39:03.412Z,994.6
2017-10-10T08:40:04.076Z,994.6
2017-10-10T08:41:04.738Z,994.6
2017-10-10T08:42:05.401Z,994.5
2017-10-10T08:43:06.064Z,994.6
2017-10-10T08:44:06.727Z,994.5
2017-10-10T08:45:07.391Z,994.5
2017-10-10T08:46:08.055Z,994.5
2017-10-10T08:47:08.718Z,994.6
2017-10-10T08:48:09.383Z,994.6
2017-10-10T08:49:10.050Z,994.6
2017-10-10T08:50:10.709Z,994.5
2017-10-10T08:51:11.379Z,994.6
2017-10-10T08:52:12.073Z,994.6
2017-10-10T08:53:12.787Z,994.6
2017-10-10T08:54:13.451Z,994.6
2017-10-10T08:55:14.113Z,994.6
2017-10-10T08:56:14.776Z,994.6
2017-10-10T08:57:15.442Z,994.7
2017-10-10T08:58:16.107Z,994.7
2017-10-10T08:59:16.773Z,994.7
2017-10-10T09:00:17.470Z,994.7
2017-10-10T09:01:18.133Z,994.7
2017-10-10T09:02:18.797Z,994.7
2017-10-10T09:03:19.461Z,994.7
2017-10-10T09:04:20.125Z,994.6
2017-10-10T09:05:20.790Z,994.6
2017-10-10T09:06:21.456Z,994.6
2017-10-10T09:07:22.119Z,994.6
2017-10-10T09:08:22.783Z,994.6
2017-10-10T09:09:23.483Z,994.6
2017-10-10T09:10:24.154Z,994.6
2017-10-10T09:11:24.811Z,994.7
2017-10-10T09:12:25.477Z,994.7
2017-10-10T09:13:26.143Z,994.6
2017-10-10T09:14:26.809Z,994.6
2017-10-10T09:15:27.474Z,994.6
2017-10-10T09:16:28.138Z,994.5
2017-10-10T09:17:28.802Z,994.5
2017-10-10T09:18:29.467Z,994.5
2017-10-10T09:19:30.131Z,994.5
2017-10-10T09:20:30.795Z,994.5
2017-10-10T09:21:31.460Z,994.5
2017-10-10T09:22:32.160Z,994.5
2017-10-10T09:23:32.825Z,994.5
2017-10-10T09:24:33.488Z,994.5
2017-10-10T09:25:34.153Z,994.6
2017-10-10T09:26:34.818Z,994.6
2017-10-10T09:27:35.480Z,994.6
2017-10-10T09:28:36.147Z,994.6
2017-10-10T09:29:36.812Z,994.7
2017-10-10T09:30:37.483Z,994.7
2017-10-10T09:31:38.142Z,994.7
2017-10-10T09:32:38.804Z,994.7
2017-10-10T09:33:39.469Z,994.8
2017-10-10T09:34:40.135Z,994.8
2017-10-10T09:35:40.800Z,994.8
2017-10-10T09:36:41.465Z,994.9
2017-10-10T09:37:42.128Z,994.8
2017-10-10T09:38:42.795Z,994.8
2017-10-10T09:39:43.498Z,994.9
2017-10-10T09:40:44.160Z,994.8
2017-10-10T09:41:44.828Z,994.8
2017-10-10T09:42:45.493Z,994.7
2017-10-10T09:43:46.191Z,994.7
2017-10-10T09:44:46.857Z,994.6
2017-10-10T09:45:47.525Z,994.7
2017-10-10T09:46:48.187Z,994.6
2017-10-10T09:47:48.852Z,994.6
2017-10-10T09:48:49.555Z,994.6
2017-10-10T09:49:50.218Z,994.6
2017-10-10T09:50:50.885Z,994.5
2017-10-10T09:51:51.551Z,994.4
2017-10-10T09:52:52.218Z,994.4
2017-10-10T09:53:52.933Z,994.4
2017-10-10T09:54:53.597Z,994.4
2017-10-10T09:55:54.262Z,994.4
2017-10-10T09:56:54.926Z,994.5
2017-10-10T09:57:55.590Z,994.5
2017-10-10T09:58:56.518Z,994.6
2017-10-10T09:59:57.208Z,994.6
2017-10-10T10:00:58.840Z,994.5
2017-10-10T10:01:59.506Z,994.7
2017-10-10T10:03:00.172Z,994.6
2017-10-10T10:04:00.836Z,994.7
2017-10-10T10:05:01.501Z,994.6
2017-10-10T10:06:02.168Z,994.6
2017-10-10T10:07:02.835Z,994.7
2017-10-10T10:08:03.501Z,994.6
2017-10-10T10:09:04.164Z,994.6
2017-10-10T10:10:04.828Z,994.6
2017-10-10T10:11:05.492Z,994.6
2017-10-10T10:12:06.156Z,994.6
2017-10-10T10:13:06.821Z,994.6
2017-10-10T10:14:07.574Z,994.6
2017-10-10T10:15:08.239Z,994.7
2017-10-10T10:16:08.905Z,994.6
2017-10-10T10:17:09.570Z,994.7
2017-10-10T10:18:10.234Z,994.7
2017-10-10T10:19:10.899Z,994.7
2017-10-10T10:20:11.563Z,994.6
2017-10-10T10:21:12.264Z,994.5
2017-10-10T10:22:12.933Z,994.6
2017-10-10T10:23:13.604Z,994.5
2017-10-10T10:24:14.259Z,994.6
2017-10-10T10:25:14.924Z,994.6
2017-10-10T10:26:15.587Z,994.5
2017-10-10T10:27:16.251Z,994.5
2017-10-10T10:28:16.915Z,994.5
2017-10-10T10:29:17.581Z,994.4
2017-10-10T10:30:18.244Z,994.4
2017-10-10T10:31:18.947Z,994.5
2017-10-10T10:32:19.612Z,994.5
2017-10-10T10:33:20.275Z,994.5
2017-10-10T10:34:20.938Z,994.5
2017-10-10T10:35:21.604Z,994.5
2017-10-10T10:36:22.270Z,994.5
2017-10-10T10:37:22.934Z,994.5
2017-10-10T10:38:23.599Z,994.5
2017-10-10T10:39:24.315Z,994.5
2017-10-10T10:40:24.980Z,994.5
2017-10-10T10:41:25.646Z,994.5
2017-10-10T10:42:26.311Z,994.5
2017-10-10T10:43:26.974Z,994.5
2017-10-10T10:44:27.655Z,994.5
2017-10-10T10:45:28.305Z,994.5
2017-10-10T10:46:28.969Z,994.5
2017-10-10T10:47:29.634Z,994.6
2017-10-10T10:48:30.297Z,994.6
2017-10-10T10:49:30.962Z,994.6
2017-10-10T10:50:31.630Z,994.6
2017-10-10T10:51:32.291Z,994.6
2017-10-10T10:52:32.956Z,994.6
2017-10-10T10:53:33.619Z,994.6
2017-10-10T10:54:34.284Z,994.5
2017-10-10T10:55:34.948Z,994.5
2017-10-10T10:56:35.612Z,994.5
2017-10-10T10:57:36.275Z,994.5
2017-10-10T10:58:36.941Z,994.6
2017-10-10T10:59:37.606Z,994.5
2017-10-10T11:00:38.272Z,994.6
2017-10-10T11:01:38.934Z,994.6
2017-10-10T11:02:39.597Z,994.5
2017-10-10T11:03:40.262Z,994.6
2017-10-10T11:04:40.931Z,994.5
2017-10-10T11:05:41.587Z,994.5
2017-10-10T11:06:42.252Z,994.5
2017-10-10T11:07:42.917Z,994.4
2017-10-10T11:08:43.582Z,994.4
2017-10-10T11:09:44.246Z,994.4
2017-10-10T11:10:44.916Z,994.4
2017-10-10T11:11:45.573Z,994.4
2017-10-10T11:12:46.237Z,994.4
2017-10-10T11:13:46.900Z,994.4
2017-10-10T11:14:47.563Z,994.4
2017-10-10T11:15:48.267Z,994.4
2017-10-10T11:16:48.966Z,994.4
2017-10-10T11:17:49.631Z,994.4
2017-10-10T11:18:50.297Z,994.4
2017-10-10T11:19:50.962Z,994.5
2017-10-10T11:20:51.625Z,994.5
2017-10-10T11:21:52.290Z,994.5
2017-10-10T11:22:52.957Z,994.5
2017-10-10T11:23:53.623Z,994.4
2017-10-10T11:24:54.338Z,994.4
2017-10-10T11:25:55.004Z,994.4
2017-10-10T11:26:55.667Z,994.4
2017-10-10T11:27:56.331Z,994.3
2017-10-10T11:28:56.995Z,994.5
2017-10-10T11:29:57.659Z,994.4
2017-10-10T11:30:58.324Z,994.4
2017-10-10T11:31:58.988Z,994.4
2017-10-10T11:32:59.654Z,994.4
2017-10-10T11:34:00.319Z,994.4
2017-10-10T11:35:00.984Z,994.4
2017-10-10T11:36:01.646Z,994.5
2017-10-10T11:37:02.314Z,994.5
2017-10-10T11:38:02.977Z,994.5
2017-10-10T11:39:03.642Z,994.4
2017-10-10T11:40:04.305Z,994.4
2017-10-10T11:41:04.969Z,994.5
2017-10-10T11:42:05.634Z,994.4
2017-10-10T11:43:06.299Z,994.5
2017-10-10T11:44:06.963Z,994.5
2017-10-10T11:45:07.626Z,994.5
2017-10-10T11:46:08.291Z,994.5
2017-10-10T11:47:08.956Z,994.5
2017-10-10T11:48:09.618Z,994.6
2017-10-10T11:49:10.282Z,994.6
2017-10-10T11:50:10.997Z,994.5
2017-10-10T11:51:11.663Z,994.6
2017-10-10T11:52:12.328Z,994.5
2017-10-10T11:53:12.991Z,994.5
2017-10-10T11:54:13.654Z,994.4
2017-10-10T11:55:14.318Z,994.5
2017-10-10T11:56:14.982Z,994.5
2017-10-10T11:57:15.646Z,994.4
2017-10-10T11:58:16.311Z,994.4
2017-10-10T11:59:16.977Z,994.4
2017-10-10T12:00:17.678Z,994.4
2017-10-10T12:01:18.342Z,994.4
2017-10-10T12:02:19.007Z,994.5
2017-10-10T12:03:19.670Z,994.5
2017-10-10T12:04:20.334Z,994.5
2017-10-10T12:05:20.996Z,994.5
2017-10-10T12:06:21.661Z,994.4
2017-10-10T12:07:22.326Z,994.4
2017-10-10T12:08:22.992Z,994.4
2017-10-10T12:09:23.654Z,994.5
2017-10-10T12:10:24.317Z,994.4
2017-10-10T12:11:24.982Z,994.4
2017-10-10T12:12:25.645Z,994.4
2017-10-10T12:13:26.309Z,994.4
2017-10-10T12:14:27.011Z,994.5
2017-10-10T12:15:27.677Z,994.5
2017-10-10T12:16:28.342Z,994.5
2017-10-10T12:17:29.006Z,994.6
2017-10-10T12:18:29.667Z,994.5
2017-10-10T12:19:30.331Z,994.5
2017-10-10T12:20:31.244Z,994.5
2017-10-10T12:21:31.909Z,994.6
2017-10-10T12:22:32.573Z,994.6
2017-10-10T12:23:33.237Z,994.5
2017-10-10T12:24:33.899Z,994.6
2017-10-10T12:25:34.563Z,994.5
2017-10-10T12:26:35.227Z,994.6
2017-10-10T12:27:35.890Z,994.6
2017-10-10T12:28:36.554Z,994.5
2017-10-10T12:29:37.220Z,994.5
2017-10-10T12:30:37.887Z,994.5
2017-10-10T12:31:38.548Z,994.5
2017-10-10T12:32:39.211Z,994.5
2017-10-10T12:33:39.911Z,994.6
2017-10-10T12:34:40.577Z,994.5
2017-10-10T12:38:42.924Z,994.5
2017-10-10T12:39:43.596Z,994.5
2017-10-10T12:40:44.289Z,994.5
2017-10-10T12:41:44.951Z,994.5
2017-10-10T12:42:45.615Z,994.5
2017-10-10T12:43:46.279Z,994.5
2017-10-10T12:44:46.940Z,994.5
2017-10-10T12:45:47.609Z,994.5
2017-10-10T12:46:48.266Z,994.5
2017-10-10T12:49:50.021Z,994.6
2017-10-10T12:50:50.684Z,994.5
2017-10-10T12:51:51.347Z,994.5
2017-10-10T12:52:52.010Z,994.5
2017-10-10T12:53:52.673Z,994.5
2017-10-10T12:54:53.337Z,994.5
2017-10-10T12:55:54.000Z,994.5
2017-10-10T12:56:54.662Z,994.5
2017-10-10T12:57:55.325Z,994.5
2017-10-10T12:58:55.989Z,994.5
2017-10-10T12:59:56.650Z,994.5
2017-10-10T13:00:57.313Z,994.5
2017-10-10T13:01:57.977Z,994.5
2017-10-10T13:02:58.639Z,994.5
2017-10-10T13:03:59.305Z,994.6
2017-10-10T13:05:00.004Z,994.6
2017-10-10T13:06:00.665Z,994.6